createdAt,value
2022-08-08T00:02:32.874Z,2.25
2022-08-08T00:05:09.656Z,3.08
2022-08-08T00:08:00.888Z,2.45
2022-08-08T00:10:53.018Z,2.45
2022-08-08T00:14:15.933Z,3.30
2022-08-08T00:16:37.700Z,2.35
2022-08-08T00:19:20.175Z,2.22
2022-08-08T00:22:06.356Z,2.10
2022-08-08T00:24:42.774Z,2.45
2022-08-08T00:27:13.956Z,2.40
2022-08-08T00:32:35.080Z,2.65
2022-08-08T00:35:21.232Z,2.10
2022-08-08T00:38:06.566Z,2.50
2022-08-08T00:41:10.465Z,2.78
2022-08-08T00:43:58.777Z,2.00
2022-08-08T00:46:58.137Z,2.22
2022-08-08T00:49:50.508Z,2.50
2022-08-08T00:52:54.177Z,2.17
2022-08-08T00:55:53.273Z,2.70
2022-08-08T00:58:43.689Z,2.67
2022-08-08T01:04:33.264Z,2.55
2022-08-08T01:07:54.085Z,2.17
2022-08-08T01:10:45.129Z,2.30
2022-08-08T01:13:53.074Z,2.70
2022-08-08T01:17:05.369Z,2.38
2022-08-08T01:20:23.526Z,2.00
2022-08-08T01:23:08.170Z,2.17
2022-08-08T01:26:30.869Z,2.17
2022-08-08T01:29:35.403Z,2.33
2022-08-08T01:32:17.072Z,2.53
2022-08-08T01:35:12.488Z,2.15
2022-08-08T01:37:59.180Z,2.53
2022-08-08T01:40:50.453Z,2.42
2022-08-08T01:43:34.594Z,2.10
2022-08-08T01:46:23.999Z,2.20
2022-08-08T01:49:23.290Z,2.85
2022-08-08T01:53:03.677Z,2.75
2022-08-08T01:56:26.754Z,2.67
2022-08-08T01:59:02.796Z,2.78
2022-08-08T02:02:03.181Z,2.53
2022-08-08T02:05:16.037Z,2.83
2022-08-08T02:08:18.405Z,2.05
2022-08-08T02:11:01.215Z,2.55
2022-08-08T02:14:03.260Z,2.80
2022-08-08T02:16:49.416Z,2.58
2022-08-08T02:19:26.689Z,2.45
2022-08-08T02:22:34.096Z,2.90
2022-08-08T02:25:47.518Z,2.60
2022-08-08T02:28:41.386Z,2.83
2022-08-08T02:31:59.308Z,2.97
2022-08-08T02:34:34.846Z,2.58
2022-08-08T02:37:52.376Z,2.17
2022-08-08T02:40:50.219Z,2.58
2022-08-08T02:44:37.640Z,2.40
2022-08-08T02:47:00.236Z,2.58
2022-08-08T02:49:57.075Z,2.50
2022-08-08T02:52:38.790Z,2.15
2022-08-08T02:55:23.689Z,2.53
2022-08-08T02:58:28.333Z,2.65
2022-08-08T03:01:32.690Z,2.17
2022-08-08T03:05:03.242Z,2.20
2022-08-08T03:08:13.518Z,3.30
2022-08-08T03:11:07.260Z,2.33
2022-08-08T03:15:58.358Z,2.58
2022-08-08T03:16:48.949Z,2.85
2022-08-08T03:19:28.069Z,2.65
2022-08-08T03:21:59.684Z,4.20
2022-08-08T03:24:27.111Z,2.97
2022-08-08T03:27:26.927Z,2.80
2022-08-08T03:30:02.192Z,2.40
2022-08-08T03:32:58.610Z,2.45
2022-08-08T03:35:30.067Z,2.10
2022-08-08T03:38:57.107Z,2.88
2022-08-08T03:40:52.280Z,3.72
2022-08-08T03:43:19.965Z,4.00
2022-08-08T03:46:07.357Z,2.80
2022-08-08T03:49:09.700Z,2.90
2022-08-08T03:51:40.014Z,3.00
2022-08-08T03:54:08.740Z,2.75
2022-08-08T03:56:36.384Z,2.80
2022-08-08T03:59:03.754Z,2.90
2022-08-08T04:02:31.722Z,2.75
2022-08-08T04:04:30.673Z,2.30
2022-08-08T04:07:01.522Z,2.53
2022-08-08T04:09:59.433Z,3.42
2022-08-08T04:12:16.069Z,2.50
2022-08-08T04:14:45.246Z,3.20
2022-08-08T04:17:22.501Z,3.40
2022-08-08T04:19:59.568Z,3.17
2022-08-08T04:24:58.170Z,3.35
2022-08-08T04:28:02.722Z,2.78
2022-08-08T04:30:18.509Z,2.88
2022-08-08T04:32:49.928Z,2.97
2022-08-08T04:35:22.787Z,2.92
2022-08-08T04:37:51.018Z,3.35
2022-08-08T04:40:18.455Z,3.08
2022-08-08T04:42:55.878Z,3.40
2022-08-08T04:45:23.817Z,3.90
2022-08-08T04:47:54.571Z,3.65
2022-08-08T04:50:25.355Z,3.50
2022-08-08T04:53:04.846Z,3.20
2022-08-08T04:55:55.182Z,2.80
2022-08-08T04:58:23.196Z,2.70
2022-08-08T05:00:51.777Z,2.90
2022-08-08T05:04:11.160Z,3.47
2022-08-08T05:06:12.675Z,3.08
2022-08-08T05:08:42.079Z,4.05
2022-08-08T05:11:18.628Z,3.40
2022-08-08T05:13:58.109Z,4.00
2022-08-08T05:16:50.969Z,2.85
2022-08-08T05:20:10.731Z,3.28
2022-08-08T05:22:05.651Z,3.38
2022-08-08T05:24:34.294Z,3.78
2022-08-08T05:27:07.536Z,4.45
2022-08-08T05:29:36.042Z,3.47
2022-08-08T05:32:07.627Z,3.65
2022-08-08T05:34:41.003Z,3.40
2022-08-08T05:37:15.756Z,3.10
2022-08-08T05:39:50.049Z,3.08
2022-08-08T05:42:25.635Z,3.25
2022-08-08T05:44:53.339Z,3.00
2022-08-08T05:47:22.150Z,2.70
2022-08-08T05:49:53.871Z,3.03
2022-08-08T05:52:22.784Z,2.30
2022-08-08T05:55:03.276Z,2.63
2022-08-08T05:58:06.183Z,2.88
2022-08-08T06:00:25.837Z,2.63
2022-08-08T06:03:13.231Z,2.28
2022-08-08T06:05:56.569Z,2.30
2022-08-08T06:08:37.796Z,2.60
2022-08-08T06:11:05.962Z,2.90
2022-08-08T06:13:36.337Z,2.28
2022-08-08T06:16:14.642Z,2.30
2022-08-08T06:18:42.910Z,2.15
2022-08-08T06:21:11.605Z,2.05
2022-08-08T06:24:03.310Z,2.40
2022-08-08T06:26:45.183Z,2.13
2022-08-08T06:29:48.742Z,1.90
2022-08-08T06:32:15.243Z,2.03
2022-08-08T06:35:11.682Z,2.08
2022-08-08T06:37:40.072Z,1.60
2022-08-08T06:40:14.246Z,2.30
2022-08-08T06:42:56.448Z,2.05
2022-08-08T06:45:23.846Z,1.42
2022-08-08T06:48:01.559Z,2.25
2022-08-08T06:50:31.904Z,1.65
2022-08-08T06:53:14.094Z,1.67
2022-08-08T06:55:47.115Z,1.55
2022-08-08T06:58:30.824Z,1.80
2022-08-08T07:01:52.415Z,1.55
2022-08-08T07:04:40.394Z,2.03
2022-08-08T07:06:46.289Z,1.40
2022-08-08T07:09:20.852Z,1.40
2022-08-08T07:11:53.182Z,1.65
2022-08-08T07:14:33.947Z,1.73
2022-08-08T07:17:09.266Z,1.30
2022-08-08T07:20:00.072Z,1.60
2022-08-08T07:23:05.530Z,2.15
2022-08-08T07:25:39.001Z,1.60
2022-08-08T07:28:19.686Z,1.80
2022-08-08T07:30:47.258Z,1.30
2022-08-08T07:33:17.641Z,1.25
2022-08-08T07:35:48.622Z,1.63
2022-08-08T07:38:21.158Z,1.38
2022-08-08T07:41:04.540Z,1.42
2022-08-08T07:46:17.962Z,1.67
2022-08-08T07:48:51.440Z,1.30
2022-08-08T07:51:23.124Z,1.58
2022-08-08T07:54:26.577Z,1.58
2022-08-08T07:57:10.245Z,1.70
2022-08-08T07:59:59.814Z,1.45
2022-08-08T08:02:41.741Z,1.70
2022-08-08T08:05:20.506Z,1.10
2022-08-08T08:07:52.964Z,1.50
2022-08-08T08:10:21.178Z,1.90
2022-08-08T08:13:25.473Z,1.40
2022-08-08T08:16:18.263Z,1.30
2022-08-08T08:18:56.052Z,1.55
2022-08-08T08:21:44.460Z,1.38
2022-08-08T08:24:15.565Z,1.30
2022-08-08T08:26:46.994Z,1.20
2022-08-08T08:29:20.053Z,1.60
2022-08-08T08:31:54.064Z,1.50
2022-08-08T08:34:32.529Z,1.90
2022-08-08T08:37:07.414Z,2.22
2022-08-08T08:39:59.827Z,2.33
2022-08-08T08:42:29.473Z,1.63
2022-08-08T08:45:21.664Z,1.48
2022-08-08T08:47:53.254Z,1.55
2022-08-08T08:50:32.449Z,1.60
2022-08-08T08:53:27.935Z,1.98
2022-08-08T08:55:52.970Z,1.95
2022-08-08T08:58:27.991Z,1.83
2022-08-08T09:01:08.290Z,3.13
2022-08-08T09:03:47.635Z,1.90
2022-08-08T09:06:29.006Z,2.40
2022-08-08T09:09:35.314Z,1.85
2022-08-08T09:12:11.242Z,1.60
2022-08-08T09:14:43.039Z,1.60
2022-08-08T09:17:17.874Z,1.60
2022-08-08T09:21:57.612Z,1.20
2022-08-08T09:22:36.019Z,1.52
2022-08-08T09:25:04.950Z,1.55
2022-08-08T09:27:55.811Z,1.65
2022-08-08T09:30:22.259Z,1.52
2022-08-08T09:33:55.453Z,1.77
2022-08-08T09:35:50.073Z,1.65
2022-08-08T09:38:59.330Z,1.60
2022-08-08T09:42:15.234Z,1.70
2022-08-08T09:44:44.089Z,2.28
2022-08-08T09:47:26.478Z,1.70
2022-08-08T09:50:11.807Z,1.75
2022-08-08T09:52:58.416Z,2.03
2022-08-08T09:55:51.295Z,1.80
2022-08-08T09:58:27.675Z,2.00
2022-08-08T10:01:14.447Z,1.60
2022-08-08T10:04:02.296Z,1.90
2022-08-08T10:06:32.651Z,1.77
2022-08-08T10:09:02.522Z,1.60
2022-08-08T10:12:25.730Z,1.30
2022-08-08T10:14:34.798Z,1.92
2022-08-08T10:17:56.604Z,1.65
2022-08-08T10:20:00.122Z,1.58
2022-08-08T10:22:33.905Z,1.70
2022-08-08T10:25:15.723Z,1.65
2022-08-08T10:27:43.853Z,1.60
2022-08-08T10:30:16.423Z,1.83
2022-08-08T10:33:00.846Z,1.27
2022-08-08T10:36:20.721Z,1.80
2022-08-08T10:38:20.164Z,1.50
2022-08-08T10:40:51.791Z,1.63
2022-08-08T10:43:22.237Z,1.67
2022-08-08T10:45:56.618Z,1.50
2022-08-08T10:48:37.163Z,1.60
2022-08-08T10:51:14.016Z,2.45
2022-08-08T10:53:57.492Z,2.30
2022-08-08T10:56:27.517Z,2.40
2022-08-08T10:59:01.230Z,2.40
2022-08-08T11:04:02.576Z,2.10
2022-08-08T11:06:34.635Z,1.90
2022-08-08T11:09:15.530Z,2.05
2022-08-08T11:12:05.831Z,1.92
2022-08-08T11:14:52.267Z,2.60
2022-08-08T11:17:59.684Z,2.00
2022-08-08T11:20:27.743Z,2.30
2022-08-08T11:23:05.522Z,2.33
2022-08-08T11:25:51.815Z,2.37
2022-08-08T11:28:25.707Z,1.92
2022-08-08T11:30:59.949Z,1.60
2022-08-08T11:33:51.825Z,1.70
2022-08-08T11:36:15.309Z,2.50
2022-08-08T11:38:54.781Z,2.13
2022-08-08T11:41:24.843Z,2.10
2022-08-08T11:43:57.807Z,2.00
2022-08-08T11:46:26.525Z,1.90
2022-08-08T11:48:56.290Z,2.67
2022-08-08T11:51:30.010Z,2.90
2022-08-08T11:54:27.407Z,2.00
2022-08-08T11:57:17.087Z,3.38
2022-08-08T12:00:00.613Z,2.38
2022-08-08T12:02:41.753Z,1.83
2022-08-08T12:05:13.300Z,1.80
2022-08-08T12:07:56.695Z,1.85
2022-08-08T12:10:29.031Z,2.03
2022-08-08T12:13:05.444Z,1.80
2022-08-08T12:15:42.704Z,1.80
2022-08-08T12:18:14.576Z,1.80
2022-08-08T12:20:44.901Z,1.90
2022-08-08T12:23:25.072Z,2.20
2022-08-08T12:26:09.841Z,1.95
2022-08-08T12:28:36.521Z,2.00
2022-08-08T12:31:10.048Z,2.03
2022-08-08T12:34:01.955Z,2.05
2022-08-08T12:36:46.227Z,2.55
2022-08-08T12:39:13.359Z,2.40
2022-08-08T12:41:57.327Z,2.50
2022-08-08T12:44:32.916Z,3.10
2022-08-08T12:47:00.969Z,3.95
2022-08-08T12:49:45.330Z,2.67
2022-08-08T12:52:28.699Z,2.33
2022-08-08T12:55:13.360Z,2.40
2022-08-08T12:57:49.557Z,4.03
2022-08-08T13:00:34.204Z,1.52
2022-08-08T13:03:07.338Z,2.30
2022-08-08T13:06:04.131Z,1.95
2022-08-08T13:08:22.221Z,2.00
2022-08-08T13:11:00.356Z,2.10
2022-08-08T13:13:34.633Z,2.40
2022-08-08T13:16:25.325Z,2.10
2022-08-08T13:18:56.970Z,1.95
2022-08-08T13:21:36.303Z,2.17
2022-08-08T13:24:18.538Z,1.90
2022-08-08T13:27:02.489Z,1.80
2022-08-08T13:29:37.930Z,1.75
2022-08-08T13:32:08.537Z,2.20
2022-08-08T13:34:39.836Z,1.70
2022-08-08T13:37:19.516Z,1.50
2022-08-08T13:39:58.363Z,1.70
2022-08-08T13:42:25.986Z,2.13
2022-08-08T13:44:57.146Z,2.28
2022-08-08T13:47:25.600Z,1.95
2022-08-08T13:50:37.622Z,1.60
2022-08-08T13:52:48.495Z,1.50
2022-08-08T13:55:28.975Z,2.17
2022-08-08T13:58:08.141Z,2.38
2022-08-08T14:00:45.291Z,1.90
2022-08-08T14:03:47.292Z,1.75
2022-08-08T14:06:20.632Z,2.08
2022-08-08T14:08:58.087Z,1.63
2022-08-08T14:11:29.891Z,2.03
2022-08-08T14:13:59.449Z,2.13
2022-08-08T14:16:28.020Z,2.38
2022-08-08T14:19:00.661Z,1.70
2022-08-08T14:21:48.767Z,2.25
2022-08-08T14:24:34.834Z,2.80
2022-08-08T14:27:07.371Z,2.20
2022-08-08T14:29:39.387Z,1.63
2022-08-08T14:32:11.611Z,2.08
2022-08-08T14:34:42.608Z,1.83
2022-08-08T14:37:11.674Z,1.90
2022-08-08T14:39:49.958Z,2.30
2022-08-08T14:42:28.314Z,1.50
2022-08-08T14:45:00.847Z,2.03
2022-08-08T14:47:34.386Z,2.22
2022-08-08T14:50:15.090Z,1.83
2022-08-08T14:53:09.813Z,1.75
2022-08-08T14:55:42.418Z,1.75
2022-08-08T14:58:11.777Z,1.88
2022-08-08T15:00:45.125Z,2.17
2022-08-08T15:03:15.782Z,1.87
2022-08-08T15:05:53.724Z,1.60
2022-08-08T15:08:34.495Z,2.30
2022-08-08T15:11:06.841Z,1.90
2022-08-08T15:13:40.848Z,2.63
2022-08-08T15:16:22.823Z,1.90
2022-08-08T15:18:52.061Z,3.00
2022-08-08T15:21:20.674Z,1.80
2022-08-08T15:23:51.046Z,1.65
2022-08-08T15:29:12.210Z,1.88
2022-08-08T15:32:17.976Z,1.75
2022-08-08T15:34:31.455Z,1.40
2022-08-08T15:37:02.368Z,2.15
2022-08-08T15:39:38.207Z,2.00
2022-08-08T15:42:18.175Z,1.67
2022-08-08T15:44:58.810Z,1.48
2022-08-08T15:47:25.487Z,1.85
2022-08-08T15:49:53.344Z,1.70
2022-08-08T15:52:22.138Z,1.63
2022-08-08T15:54:51.800Z,1.70
2022-08-08T15:57:20.735Z,2.28
2022-08-08T16:00:06.908Z,1.77
2022-08-08T16:02:34.588Z,2.13
2022-08-08T16:05:02.039Z,1.48
2022-08-08T16:07:51.693Z,2.35
2022-08-08T16:13:10.123Z,1.50
2022-08-08T16:13:28.630Z,1.50
2022-08-08T16:15:59.061Z,1.77
2022-08-08T16:18:35.979Z,1.73
2022-08-08T16:21:05.987Z,1.98
2022-08-08T16:23:50.085Z,1.80
2022-08-08T16:26:23.016Z,1.90
2022-08-08T16:29:03.343Z,2.00
2022-08-08T16:31:35.109Z,1.98
2022-08-08T16:34:04.157Z,1.98
2022-08-08T16:36:33.793Z,1.80
2022-08-08T16:39:16.685Z,5.55
2022-08-08T16:41:51.147Z,2.03
2022-08-08T16:44:27.862Z,2.70
2022-08-08T16:47:16.538Z,2.30
2022-08-08T16:49:44.077Z,1.95
2022-08-08T16:55:20.746Z,1.90
2022-08-08T16:55:34.010Z,2.10
2022-08-08T16:58:13.799Z,1.70
2022-08-08T17:00:34.925Z,1.90
2022-08-08T17:03:03.532Z,1.90
2022-08-08T17:05:31.197Z,2.13
2022-08-08T17:08:09.512Z,1.83
2022-08-08T17:10:36.274Z,2.03
2022-08-08T17:13:03.049Z,2.30
2022-08-08T17:15:41.331Z,1.70
2022-08-08T17:18:19.535Z,1.88
2022-08-08T17:20:47.137Z,2.10
2022-08-08T17:23:58.497Z,2.10
2022-08-08T17:26:05.354Z,1.98
2022-08-08T17:28:35.259Z,2.00
2022-08-08T17:31:44.064Z,1.98
2022-08-08T17:34:49.420Z,2.50
2022-08-08T17:36:38.417Z,2.13
2022-08-08T17:40:04.787Z,2.40
2022-08-08T17:42:12.855Z,2.10
2022-08-08T17:44:44.014Z,1.70
2022-08-08T17:47:23.188Z,3.40
2022-08-08T17:49:52.877Z,2.67
2022-08-08T17:52:24.044Z,2.25
2022-08-08T17:54:56.438Z,2.10
2022-08-08T17:57:24.903Z,2.13
2022-08-08T17:59:58.792Z,1.98
2022-08-08T18:02:30.223Z,2.08
2022-08-08T18:05:04.351Z,2.30
2022-08-08T18:08:02.356Z,2.55
2022-08-08T18:10:20.000Z,2.10
2022-08-08T18:12:57.862Z,2.13
2022-08-08T18:15:25.320Z,1.90
2022-08-08T18:18:09.966Z,1.80
2022-08-08T18:20:54.568Z,1.98
2022-08-08T18:23:22.385Z,2.20
2022-08-08T18:25:50.147Z,2.08
2022-08-08T18:28:21.647Z,2.17
2022-08-08T18:30:52.288Z,2.20
2022-08-08T18:33:36.949Z,2.58
2022-08-08T18:36:10.217Z,2.20
2022-08-08T18:38:49.175Z,2.15
2022-08-08T18:41:16.002Z,2.10
2022-08-08T18:43:43.536Z,2.25
2022-08-08T18:46:55.369Z,2.10
2022-08-08T18:48:58.042Z,2.03
2022-08-08T18:51:52.840Z,2.20
2022-08-08T18:54:22.534Z,2.10
2022-08-08T18:56:57.525Z,2.40
2022-08-08T18:59:24.761Z,2.30
2022-08-08T19:02:27.995Z,2.13
2022-08-08T19:04:50.897Z,2.35
2022-08-08T19:07:18.361Z,2.45
2022-08-08T19:09:49.598Z,2.25
2022-08-08T19:12:32.537Z,2.35
2022-08-08T19:15:02.023Z,2.67
2022-08-08T19:17:48.483Z,2.50
2022-08-08T19:20:16.416Z,2.63
2022-08-08T19:22:44.654Z,2.25
2022-08-08T19:25:29.133Z,2.30
2022-08-08T19:28:01.260Z,2.53
2022-08-08T19:32:58.106Z,2.88
2022-08-08T19:35:44.207Z,3.42
2022-08-08T19:38:17.499Z,2.80
2022-08-08T19:40:55.763Z,2.90
2022-08-08T19:43:28.607Z,2.53
2022-08-08T19:46:01.047Z,3.00
2022-08-08T19:48:30.903Z,2.95
2022-08-08T19:51:00.890Z,2.72
2022-08-08T19:53:51.591Z,3.17
2022-08-08T19:56:16.219Z,2.70
2022-08-08T19:58:52.934Z,3.28
2022-08-08T20:01:26.254Z,2.80
2022-08-08T20:04:03.610Z,2.80
2022-08-08T20:06:30.622Z,2.90
2022-08-08T20:08:58.109Z,3.35
2022-08-08T20:11:24.839Z,3.40
2022-08-08T20:14:33.085Z,3.55
2022-08-08T20:16:45.473Z,3.13
2022-08-08T20:19:12.313Z,3.10
2022-08-08T20:21:43.022Z,3.50
2022-08-08T20:24:12.739Z,3.78
2022-08-08T20:26:41.647Z,3.28
2022-08-08T20:29:13.948Z,3.50
2022-08-08T20:32:07.516Z,3.67
2022-08-08T20:34:31.831Z,3.33
2022-08-08T20:37:00.794Z,4.45
2022-08-08T20:39:41.629Z,3.40
2022-08-08T20:42:23.692Z,4.57
2022-08-08T20:44:57.862Z,4.10
2022-08-08T20:47:25.534Z,4.07
2022-08-08T20:49:55.789Z,4.55
2022-08-08T20:52:27.748Z,4.15
2022-08-08T20:54:55.774Z,3.95
2022-08-08T20:57:22.587Z,3.38
2022-08-08T20:59:54.120Z,3.55
2022-08-08T21:02:25.888Z,3.88
2022-08-08T21:05:01.168Z,4.97
2022-08-08T21:07:29.922Z,4.32
2022-08-08T21:10:15.042Z,3.80
2022-08-08T21:12:52.778Z,3.92
2022-08-08T21:16:06.233Z,3.95
2022-08-08T21:18:11.828Z,3.58
2022-08-08T21:20:38.936Z,4.88
2022-08-08T21:23:09.506Z,4.15
2022-08-08T21:25:39.657Z,4.03
2022-08-08T21:28:15.835Z,4.00
2022-08-08T21:30:45.265Z,3.65
2022-08-08T21:33:17.611Z,3.83
2022-08-08T21:36:17.842Z,3.78
2022-08-08T21:38:31.210Z,3.33
2022-08-08T21:40:58.291Z,3.58
2022-08-08T21:43:31.312Z,4.53
2022-08-08T21:48:07.422Z,4.57
2022-08-08T21:48:53.223Z,5.28
2022-08-08T21:54:23.434Z,4.78
2022-08-08T21:54:32.212Z,5.18
2022-08-08T21:56:57.170Z,4.03
2022-08-08T21:59:26.717Z,4.05
2022-08-08T22:02:10.731Z,3.83
2022-08-08T22:04:39.326Z,3.70
2022-08-08T22:07:06.008Z,4.25
2022-08-08T22:09:37.260Z,4.20
2022-08-08T22:12:09.666Z,4.43
2022-08-08T22:14:42.796Z,3.95
2022-08-08T22:17:10.557Z,4.15
2022-08-08T22:20:12.986Z,4.38
2022-08-08T22:22:29.128Z,4.30
2022-08-08T22:24:58.253Z,3.38
2022-08-08T22:27:38.903Z,4.03
2022-08-08T22:30:13.659Z,4.03
2022-08-08T22:32:41.193Z,4.28
2022-08-08T22:35:08.486Z,4.13
2022-08-08T22:37:53.907Z,4.10
2022-08-08T22:40:21.283Z,4.13
2022-08-08T22:42:48.329Z,4.20
2022-08-08T22:45:15.783Z,4.22
2022-08-08T22:47:49.421Z,4.55
2022-08-08T22:50:27.479Z,3.88
2022-08-08T22:54:30.506Z,4.60
2022-08-08T22:55:59.307Z,4.68
2022-08-08T23:01:30.170Z,4.03
2022-08-08T23:03:56.559Z,4.05
2022-08-08T23:06:24.846Z,4.35
2022-08-08T23:08:54.286Z,4.53
2022-08-08T23:11:23.222Z,4.72
2022-08-08T23:14:00.999Z,4.00
2022-08-08T23:16:38.058Z,4.25
2022-08-08T23:19:09.576Z,4.20
2022-08-08T23:21:38.110Z,3.78
2022-08-08T23:24:06.660Z,4.32
2022-08-08T23:26:34.347Z,4.03
2022-08-08T23:29:01.744Z,4.82
2022-08-08T23:31:28.470Z,4.50
2022-08-08T23:34:17.001Z,4.00
2022-08-08T23:36:42.381Z,4.88
2022-08-08T23:39:09.365Z,4.40
2022-08-08T23:41:41.612Z,4.13
2022-08-08T23:44:12.626Z,4.18
2022-08-08T23:49:03.598Z,4.25
2022-08-08T23:49:26.488Z,4.70
2022-08-08T23:52:06.770Z,4.28
2022-08-08T23:54:53.601Z,4.50
2022-08-08T23:57:39.355Z,3.78
